Airfield :
LOGIN :

Register | Disclaimer

   EN    FR    IT 

 










Legend :    VFR   Marginal VFR   IFR   Intensive IFR   Very Intensive IFR
Visi :
Ceiling :
>= 8 km
>= 3000ft
5 to 8 km
1000 to 3000 ft
1500m to 5 km
500 to 1000 ft
800 to 1500m
200 to 500 ft
< 800m
< 200 ft
Symbols :   Thunderstorms  Fog  Heavy snow  Heavy precipitations  Wind > 20 kt
SIGMETs :     Misc.  Thunderstorms  Icing  Turbulence  Mountain Waves  Volcanic Ashes







- Airport Elevation : 76 ft
- IATA code : KID


ESMK - Kristianstad

CURRENT METAR :
  • 170520Z 24013KT 5000 DZ FEW013 SCT035 BKN042 04/// Q0987

EXPIRED METARs :
  • 170450Z 24012KT 9999 -RA FEW014 SCT019 BKN024 05/// Q0987
  • 170420Z AUTO 25013KT 9999 BKN014/// 05/// Q0987
  • 170350Z AUTO 24012KT 9999 FEW017/// 04/// Q0987
  • 170320Z AUTO 24012KT 9999 -DZ FEW014/// 04/// Q0987 RERA
  • 170250Z AUTO 26009KT 9999 FEW016/// 04/// Q0988 REDZ

TAF TAF ESMK
Valid from the 17 at 06:00 until the 17 at 15:00 UTC


170511Z 1706/1715 26015KT 9999 BKN015
TEMPO 1706/1707 2000 RADZ BR BKN008
TEMPO 1707/1715 4000 SHRA BKN010 BKN015CB
No reported NOTAMs for that airfield.



MET'MAP, your aeronautical weather chart ! - Copyright ORBIFLY December 2007 - Disclaimer

ORBIFLY MET'MAP TEAM :

Programming & Development : Alexandra Zaïnal
Concept & Development : Baudouin d'Aumeries
Co-Development & Prog : Marc-Olivier Méhu
Technical & hardware support : Manuel Goepfert

Contact : metmap@orbifly.com




SOURCES & CREDITS :

   NOAA